sensor_id;sensor_type;location;lat;lon;timestamp;P1;durP1;ratioP1;P2;durP2;ratioP2
8319;SDS011;4197;42.130;24.746;2024-03-02T00:02:03;42.37;;;24.40;;
8319;SDS011;4197;42.130;24.746;2024-03-02T00:04:33;40.17;;;23.23;;
8319;SDS011;4197;42.130;24.746;2024-03-02T00:07:03;43.70;;;25.90;;
8319;SDS011;4197;42.130;24.746;2024-03-02T00:09:32;44.30;;;25.53;;
8319;SDS011;4197;42.130;24.746;2024-03-02T00:12:00;46.70;;;24.70;;
8319;SDS011;4197;42.130;24.746;2024-03-02T00:14:29;45.37;;;25.03;;
8319;SDS011;4197;42.130;24.746;2024-03-02T00:16:57;51.27;;;25.67;;
8319;SDS011;4197;42.130;24.746;2024-03-02T00:19:27;46.50;;;24.80;;
8319;SDS011;4197;42.130;24.746;2024-03-02T00:21:55;41.87;;;23.87;;
8319;SDS011;4197;42.130;24.746;2024-03-02T00:24:31;46.17;;;25.20;;
8319;SDS011;4197;42.130;24.746;2024-03-02T00:27:03;45.97;;;24.83;;
8319;SDS011;4197;42.130;24.746;2024-03-02T00:29:34;41.37;;;23.93;;
8319;SDS011;4197;42.130;24.746;2024-03-02T00:32:03;46.77;;;25.07;;
8319;SDS011;4197;42.130;24.746;2024-03-02T00:34:35;45.23;;;24.70;;
8319;SDS011;4197;42.130;24.746;2024-03-02T00:37:04;49.00;;;27.47;;
8319;SDS011;4197;42.130;24.746;2024-03-02T00:39:34;52.93;;;26.60;;
8319;SDS011;4197;42.130;24.746;2024-03-02T00:42:02;48.20;;;26.20;;
8319;SDS011;4197;42.130;24.746;2024-03-02T00:44:31;53.57;;;29.07;;
8319;SDS011;4197;42.130;24.746;2024-03-02T00:47:02;51.73;;;26.80;;
8319;SDS011;4197;42.130;24.746;2024-03-02T00:49:30;51.33;;;26.23;;
8319;SDS011;4197;42.130;24.746;2024-03-02T00:51:59;48.17;;;28.53;;
8319;SDS011;4197;42.130;24.746;2024-03-02T00:54:27;51.10;;;27.23;;
8319;SDS011;4197;42.130;24.746;2024-03-02T00:56:58;54.20;;;26.93;;
8319;SDS011;4197;42.130;24.746;2024-03-02T00:59:27;57.43;;;28.43;;
8319;SDS011;4197;42.130;24.746;2024-03-02T01:01:56;59.33;;;29.87;;
8319;SDS011;4197;42.130;24.746;2024-03-02T01:04:24;58.60;;;30.20;;
8319;SDS011;4197;42.130;24.746;2024-03-02T01:06:53;54.07;;;28.23;;
8319;SDS011;4197;42.130;24.746;2024-03-02T01:09:21;61.03;;;29.73;;
8319;SDS011;4197;42.130;24.746;2024-03-02T01:11:49;60.40;;;29.93;;
8319;SDS011;4197;42.130;24.746;2024-03-02T01:14:19;60.73;;;31.43;;
8319;SDS011;4197;42.130;24.746;2024-03-02T01:16:47;64.53;;;32.30;;
8319;SDS011;4197;42.130;24.746;2024-03-02T01:19:16;58.50;;;29.23;;
8319;SDS011;4197;42.130;24.746;2024-03-02T01:21:45;68.60;;;33.33;;
8319;SDS011;4197;42.130;24.746;2024-03-02T01:24:13;72.10;;;32.03;;
8319;SDS011;4197;42.130;24.746;2024-03-02T01:26:41;70.10;;;33.53;;
8319;SDS011;4197;42.130;24.746;2024-03-02T01:29:10;70.80;;;33.77;;
8319;SDS011;4197;42.130;24.746;2024-03-02T01:31:39;77.33;;;34.93;;
8319;SDS011;4197;42.130;24.746;2024-03-02T01:34:08;78.47;;;35.07;;
8319;SDS011;4197;42.130;24.746;2024-03-02T01:36:37;82.37;;;33.83;;
8319;SDS011;4197;42.130;24.746;2024-03-02T01:39:05;80.30;;;34.70;;
8319;SDS011;4197;42.130;24.746;2024-03-02T01:41:36;83.87;;;36.03;;
8319;SDS011;4197;42.130;24.746;2024-03-02T01:44:04;93.47;;;36.27;;
8319;SDS011;4197;42.130;24.746;2024-03-02T01:46:32;93.67;;;36.97;;
8319;SDS011;4197;42.130;24.746;2024-03-02T01:49:02;86.93;;;35.83;;
8319;SDS011;4197;42.130;24.746;2024-03-02T01:51:31;98.97;;;36.83;;
8319;SDS011;4197;42.130;24.746;2024-03-02T01:53:59;84.03;;;34.10;;
8319;SDS011;4197;42.130;24.746;2024-03-02T01:56:28;93.93;;;35.90;;
8319;SDS011;4197;42.130;24.746;2024-03-02T01:58:56;79.03;;;33.50;;
8319;SDS011;4197;42.130;24.746;2024-03-02T02:01:25;78.57;;;33.33;;
8319;SDS011;4197;42.130;24.746;2024-03-02T02:03:53;90.43;;;34.17;;
8319;SDS011;4197;42.130;24.746;2024-03-02T02:06:23;79.67;;;34.03;;
8319;SDS011;4197;42.130;24.746;2024-03-02T02:08:51;73.10;;;31.40;;
8319;SDS011;4197;42.130;24.746;2024-03-02T02:11:20;69.77;;;30.53;;
8319;SDS011;4197;42.130;24.746;2024-03-02T02:13:48;70.40;;;30.37;;
8319;SDS011;4197;42.130;24.746;2024-03-02T02:16:17;65.77;;;28.87;;
8319;SDS011;4197;42.130;24.746;2024-03-02T02:18:45;71.93;;;29.33;;
8319;SDS011;4197;42.130;24.746;2024-03-02T02:21:14;66.47;;;28.37;;
8319;SDS011;4197;42.130;24.746;2024-03-02T02:23:44;68.40;;;29.53;;
8319;SDS011;4197;42.130;24.746;2024-03-02T02:26:15;55.30;;;28.23;;
8319;SDS011;4197;42.130;24.746;2024-03-02T02:28:43;62.97;;;27.70;;
8319;SDS011;4197;42.130;24.746;2024-03-02T02:31:13;58.30;;;28.17;;
8319;SDS011;4197;42.130;24.746;2024-03-02T02:33:42;60.03;;;27.43;;
8319;SDS011;4197;42.130;24.746;2024-03-02T02:36:10;51.80;;;26.93;;
8319;SDS011;4197;42.130;24.746;2024-03-02T02:38:39;54.33;;;27.57;;
8319;SDS011;4197;42.130;24.746;2024-03-02T02:41:12;52.37;;;27.77;;
8319;SDS011;4197;42.130;24.746;2024-03-02T02:43:41;53.00;;;26.90;;
8319;SDS011;4197;42.130;24.746;2024-03-02T02:46:09;57.17;;;27.73;;
8319;SDS011;4197;42.130;24.746;2024-03-02T02:48:37;63.30;;;28.13;;
8319;SDS011;4197;42.130;24.746;2024-03-02T02:51:06;55.17;;;27.60;;
8319;SDS011;4197;42.130;24.746;2024-03-02T02:53:34;54.37;;;26.03;;
8319;SDS011;4197;42.130;24.746;2024-03-02T02:56:06;55.10;;;26.13;;
8319;SDS011;4197;42.130;24.746;2024-03-02T02:58:36;51.07;;;27.20;;
8319;SDS011;4197;42.130;24.746;2024-03-02T03:01:04;56.60;;;27.37;;
8319;SDS011;4197;42.130;24.746;2024-03-02T03:03:34;51.70;;;25.83;;
8319;SDS011;4197;42.130;24.746;2024-03-02T03:06:03;52.03;;;28.30;;
8319;SDS011;4197;42.130;24.746;2024-03-02T03:08:31;54.73;;;28.27;;
8319;SDS011;4197;42.130;24.746;2024-03-02T03:10:59;56.33;;;27.23;;
8319;SDS011;4197;42.130;24.746;2024-03-02T03:13:28;51.13;;;27.53;;
8319;SDS011;4197;42.130;24.746;2024-03-02T03:15:58;50.30;;;26.47;;
8319;SDS011;4197;42.130;24.746;2024-03-02T03:18:27;56.90;;;27.70;;
8319;SDS011;4197;42.130;24.746;2024-03-02T03:20:56;55.00;;;26.20;;
8319;SDS011;4197;42.130;24.746;2024-03-02T03:23:24;46.33;;;25.57;;
8319;SDS011;4197;42.130;24.746;2024-03-02T03:25:52;43.40;;;24.07;;
8319;SDS011;4197;42.130;24.746;2024-03-02T03:28:21;46.63;;;24.40;;
8319;SDS011;4197;42.130;24.746;2024-03-02T03:30:49;45.80;;;24.03;;
8319;SDS011;4197;42.130;24.746;2024-03-02T03:33:19;44.93;;;23.70;;
8319;SDS011;4197;42.130;24.746;2024-03-02T03:35:47;44.77;;;24.20;;
8319;SDS011;4197;42.130;24.746;2024-03-02T03:38:16;49.43;;;24.27;;
8319;SDS011;4197;42.130;24.746;2024-03-02T03:40:44;50.60;;;25.20;;
8319;SDS011;4197;42.130;24.746;2024-03-02T03:43:12;49.53;;;24.43;;
8319;SDS011;4197;42.130;24.746;2024-03-02T03:45:41;43.67;;;25.40;;
8319;SDS011;4197;42.130;24.746;2024-03-02T03:48:09;50.67;;;27.87;;
8319;SDS011;4197;42.130;24.746;2024-03-02T03:50:39;48.13;;;23.70;;
8319;SDS011;4197;42.130;24.746;2024-03-02T03:53:07;48.97;;;25.47;;
8319;SDS011;4197;42.130;24.746;2024-03-02T03:55:35;50.57;;;27.03;;
8319;SDS011;4197;42.130;24.746;2024-03-02T03:58:04;48.87;;;25.20;;
8319;SDS011;4197;42.130;24.746;2024-03-02T04:00:32;48.33;;;26.37;;
8319;SDS011;4197;42.130;24.746;2024-03-02T04:03:00;46.17;;;26.47;;
8319;SDS011;4197;42.130;24.746;2024-03-02T04:05:29;52.40;;;27.70;;
8319;SDS011;4197;42.130;24.746;2024-03-02T04:07:58;44.47;;;23.93;;
8319;SDS011;4197;42.130;24.746;2024-03-02T04:10:27;45.27;;;25.03;;
8319;SDS011;4197;42.130;24.746;2024-03-02T04:12:56;49.33;;;24.73;;
8319;SDS011;4197;42.130;24.746;2024-03-02T04:15:25;46.90;;;23.70;;
8319;SDS011;4197;42.130;24.746;2024-03-02T04:17:53;58.83;;;24.47;;
8319;SDS011;4197;42.130;24.746;2024-03-02T04:20:22;48.43;;;24.50;;
8319;SDS011;4197;42.130;24.746;2024-03-02T04:22:50;44.03;;;24.60;;
8319;SDS011;4197;42.130;24.746;2024-03-02T04:25:19;47.70;;;24.60;;
8319;SDS011;4197;42.130;24.746;2024-03-02T04:27:48;43.97;;;23.23;;
8319;SDS011;4197;42.130;24.746;2024-03-02T04:30:16;53.30;;;24.77;;
8319;SDS011;4197;42.130;24.746;2024-03-02T04:32:44;43.27;;;24.47;;
8319;SDS011;4197;42.130;24.746;2024-03-02T04:35:14;50.20;;;25.10;;
8319;SDS011;4197;42.130;24.746;2024-03-02T04:37:42;44.67;;;24.20;;
8319;SDS011;4197;42.130;24.746;2024-03-02T04:40:11;57.13;;;26.97;;
8319;SDS011;4197;42.130;24.746;2024-03-02T04:42:41;50.73;;;24.20;;
8319;SDS011;4197;42.130;24.746;2024-03-02T04:45:10;52.57;;;26.57;;
8319;SDS011;4197;42.130;24.746;2024-03-02T04:47:38;58.57;;;26.03;;
8319;SDS011;4197;42.130;24.746;2024-03-02T04:50:07;52.30;;;25.03;;
8319;SDS011;4197;42.130;24.746;2024-03-02T04:52:35;58.63;;;26.07;;
8319;SDS011;4197;42.130;24.746;2024-03-02T04:55:06;46.40;;;24.83;;
8319;SDS011;4197;42.130;24.746;2024-03-02T04:57:52;51.03;;;24.80;;
8319;SDS011;4197;42.130;24.746;2024-03-02T05:00:22;56.87;;;26.17;;
8319;SDS011;4197;42.130;24.746;2024-03-02T05:02:51;57.83;;;26.03;;
8319;SDS011;4197;42.130;24.746;2024-03-02T05:05:19;51.30;;;24.60;;
8319;SDS011;4197;42.130;24.746;2024-03-02T05:07:47;51.20;;;24.17;;
8319;SDS011;4197;42.130;24.746;2024-03-02T05:10:15;47.60;;;24.17;;
8319;SDS011;4197;42.130;24.746;2024-03-02T05:12:44;46.53;;;25.80;;
8319;SDS011;4197;42.130;24.746;2024-03-02T05:15:25;53.07;;;24.63;;
8319;SDS011;4197;42.130;24.746;2024-03-02T05:17:54;48.90;;;24.00;;
8319;SDS011;4197;42.130;24.746;2024-03-02T05:20:24;49.60;;;24.73;;
8319;SDS011;4197;42.130;24.746;2024-03-02T05:22:52;51.70;;;24.27;;
8319;SDS011;4197;42.130;24.746;2024-03-02T05:25:20;48.17;;;24.77;;
8319;SDS011;4197;42.130;24.746;2024-03-02T05:27:49;48.17;;;23.80;;
8319;SDS011;4197;42.130;24.746;2024-03-02T05:30:18;47.33;;;23.43;;
8319;SDS011;4197;42.130;24.746;2024-03-02T05:32:47;47.10;;;22.13;;
8319;SDS011;4197;42.130;24.746;2024-03-02T05:35:16;50.37;;;24.57;;
8319;SDS011;4197;42.130;24.746;2024-03-02T05:37:44;49.57;;;23.43;;
8319;SDS011;4197;42.130;24.746;2024-03-02T05:40:12;46.57;;;23.53;;
8319;SDS011;4197;42.130;24.746;2024-03-02T05:42:41;45.33;;;23.47;;
8319;SDS011;4197;42.130;24.746;2024-03-02T05:45:09;46.53;;;24.13;;
8319;SDS011;4197;42.130;24.746;2024-03-02T05:47:37;43.57;;;22.90;;
8319;SDS011;4197;42.130;24.746;2024-03-02T05:50:07;46.80;;;23.33;;
8319;SDS011;4197;42.130;24.746;2024-03-02T05:52:36;44.90;;;22.07;;
8319;SDS011;4197;42.130;24.746;2024-03-02T05:55:05;47.57;;;22.40;;
8319;SDS011;4197;42.130;24.746;2024-03-02T05:57:34;47.40;;;23.27;;
8319;SDS011;4197;42.130;24.746;2024-03-02T06:00:16;47.30;;;23.10;;
8319;SDS011;4197;42.130;24.746;2024-03-02T06:02:45;48.13;;;23.13;;
8319;SDS011;4197;42.130;24.746;2024-03-02T06:05:14;44.23;;;21.23;;
8319;SDS011;4197;42.130;24.746;2024-03-02T06:07:45;48.53;;;23.77;;
8319;SDS011;4197;42.130;24.746;2024-03-02T06:10:13;41.03;;;20.83;;
8319;SDS011;4197;42.130;24.746;2024-03-02T06:12:42;45.03;;;22.57;;
8319;SDS011;4197;42.130;24.746;2024-03-02T06:15:10;49.33;;;22.70;;
8319;SDS011;4197;42.130;24.746;2024-03-02T06:17:38;42.60;;;22.37;;
8319;SDS011;4197;42.130;24.746;2024-03-02T06:20:08;44.77;;;22.10;;
8319;SDS011;4197;42.130;24.746;2024-03-02T06:22:38;44.90;;;23.17;;
8319;SDS011;4197;42.130;24.746;2024-03-02T06:25:07;38.57;;;22.73;;
8319;SDS011;4197;42.130;24.746;2024-03-02T06:27:35;41.60;;;21.43;;
8319;SDS011;4197;42.130;24.746;2024-03-02T06:30:04;43.97;;;21.23;;
8319;SDS011;4197;42.130;24.746;2024-03-02T06:32:34;42.40;;;21.17;;
8319;SDS011;4197;42.130;24.746;2024-03-02T06:35:02;34.87;;;19.63;;
8319;SDS011;4197;42.130;24.746;2024-03-02T06:37:32;38.37;;;20.63;;
8319;SDS011;4197;42.130;24.746;2024-03-02T06:40:02;35.17;;;19.87;;
8319;SDS011;4197;42.130;24.746;2024-03-02T06:42:30;41.10;;;20.00;;
8319;SDS011;4197;42.130;24.746;2024-03-02T06:45:00;34.83;;;19.93;;
8319;SDS011;4197;42.130;24.746;2024-03-02T06:47:29;57.67;;;35.43;;
8319;SDS011;4197;42.130;24.746;2024-03-02T06:49:57;44.03;;;24.43;;
8319;SDS011;4197;42.130;24.746;2024-03-02T06:52:26;45.50;;;26.40;;
8319;SDS011;4197;42.130;24.746;2024-03-02T06:54:54;47.03;;;25.90;;
8319;SDS011;4197;42.130;24.746;2024-03-02T06:57:24;37.40;;;19.67;;
8319;SDS011;4197;42.130;24.746;2024-03-02T06:59:52;39.43;;;21.30;;
8319;SDS011;4197;42.130;24.746;2024-03-02T07:02:25;40.70;;;22.03;;
8319;SDS011;4197;42.130;24.746;2024-03-02T07:04:54;39.00;;;22.30;;
8319;SDS011;4197;42.130;24.746;2024-03-02T07:07:22;38.10;;;21.30;;
8319;SDS011;4197;42.130;24.746;2024-03-02T07:09:51;50.20;;;31.17;;
8319;SDS011;4197;42.130;24.746;2024-03-02T07:12:19;34.87;;;19.27;;
8319;SDS011;4197;42.130;24.746;2024-03-02T07:14:49;40.07;;;21.50;;
8319;SDS011;4197;42.130;24.746;2024-03-02T07:17:39;42.57;;;22.70;;
8319;SDS011;4197;42.130;24.746;2024-03-02T07:20:11;49.93;;;27.60;;
8319;SDS011;4197;42.130;24.746;2024-03-02T07:22:40;43.00;;;25.40;;
8319;SDS011;4197;42.130;24.746;2024-03-02T07:25:10;50.60;;;29.37;;
8319;SDS011;4197;42.130;24.746;2024-03-02T07:27:42;40.87;;;22.03;;
8319;SDS011;4197;42.130;24.746;2024-03-02T07:30:14;46.13;;;23.03;;
8319;SDS011;4197;42.130;24.746;2024-03-02T07:32:44;69.63;;;43.07;;
8319;SDS011;4197;42.130;24.746;2024-03-02T07:35:12;44.73;;;23.93;;
8319;SDS011;4197;42.130;24.746;2024-03-02T07:37:41;44.00;;;25.10;;
8319;SDS011;4197;42.130;24.746;2024-03-02T07:40:11;56.67;;;30.60;;
8319;SDS011;4197;42.130;24.746;2024-03-02T07:42:41;54.20;;;27.37;;
8319;SDS011;4197;42.130;24.746;2024-03-02T07:45:09;59.63;;;30.83;;
8319;SDS011;4197;42.130;24.746;2024-03-02T07:47:39;46.03;;;26.17;;
8319;SDS011;4197;42.130;24.746;2024-03-02T07:50:08;56.33;;;37.47;;
8319;SDS011;4197;42.130;24.746;2024-03-02T07:52:37;52.17;;;31.17;;
8319;SDS011;4197;42.130;24.746;2024-03-02T07:55:06;49.53;;;32.60;;
8319;SDS011;4197;42.130;24.746;2024-03-02T07:57:34;33.53;;;18.33;;
8319;SDS011;4197;42.130;24.746;2024-03-02T08:00:06;37.47;;;23.07;;
8319;SDS011;4197;42.130;24.746;2024-03-02T08:02:36;40.73;;;25.03;;
8319;SDS011;4197;42.130;24.746;2024-03-02T08:05:06;40.30;;;21.27;;
8319;SDS011;4197;42.130;24.746;2024-03-02T08:07:34;33.97;;;20.03;;
8319;SDS011;4197;42.130;24.746;2024-03-02T08:10:03;31.57;;;19.70;;
8319;SDS011;4197;42.130;24.746;2024-03-02T08:12:32;40.87;;;22.13;;
8319;SDS011;4197;42.130;24.746;2024-03-02T08:15:01;41.63;;;21.27;;
8319;SDS011;4197;42.130;24.746;2024-03-02T08:17:31;37.40;;;21.77;;
8319;SDS011;4197;42.130;24.746;2024-03-02T08:20:03;33.13;;;19.83;;
8319;SDS011;4197;42.130;24.746;2024-03-02T08:22:34;38.43;;;20.57;;
8319;SDS011;4197;42.130;24.746;2024-03-02T08:25:03;34.97;;;18.57;;
8319;SDS011;4197;42.130;24.746;2024-03-02T08:27:32;30.90;;;17.33;;
8319;SDS011;4197;42.130;24.746;2024-03-02T08:30:00;33.10;;;18.20;;
8319;SDS011;4197;42.130;24.746;2024-03-02T08:32:30;30.43;;;17.70;;
8319;SDS011;4197;42.130;24.746;2024-03-02T08:34:58;31.80;;;18.33;;
8319;SDS011;4197;42.130;24.746;2024-03-02T08:37:28;26.80;;;16.43;;
8319;SDS011;4197;42.130;24.746;2024-03-02T08:39:56;30.23;;;16.30;;
8319;SDS011;4197;42.130;24.746;2024-03-02T08:42:25;30.13;;;18.90;;
8319;SDS011;4197;42.130;24.746;2024-03-02T08:44:53;28.33;;;17.93;;
8319;SDS011;4197;42.130;24.746;2024-03-02T08:47:22;27.00;;;16.87;;
8319;SDS011;4197;42.130;24.746;2024-03-02T08:49:50;29.83;;;16.57;;
8319;SDS011;4197;42.130;24.746;2024-03-02T08:52:19;27.97;;;16.87;;
8319;SDS011;4197;42.130;24.746;2024-03-02T08:54:49;31.13;;;17.40;;
8319;SDS011;4197;42.130;24.746;2024-03-02T08:57:17;35.33;;;19.00;;
8319;SDS011;4197;42.130;24.746;2024-03-02T08:59:45;27.73;;;16.60;;
8319;SDS011;4197;42.130;24.746;2024-03-02T09:02:14;32.73;;;16.90;;
8319;SDS011;4197;42.130;24.746;2024-03-02T09:04:42;32.50;;;17.83;;
8319;SDS011;4197;42.130;24.746;2024-03-02T09:07:11;35.23;;;18.97;;
8319;SDS011;4197;42.130;24.746;2024-03-02T09:09:39;34.10;;;20.33;;
8319;SDS011;4197;42.130;24.746;2024-03-02T09:12:09;35.77;;;19.60;;
8319;SDS011;4197;42.130;24.746;2024-03-02T09:14:40;32.83;;;19.27;;
8319;SDS011;4197;42.130;24.746;2024-03-02T09:17:09;35.93;;;20.30;;
8319;SDS011;4197;42.130;24.746;2024-03-02T09:19:38;31.80;;;19.27;;
8319;SDS011;4197;42.130;24.746;2024-03-02T09:22:07;36.73;;;19.50;;
8319;SDS011;4197;42.130;24.746;2024-03-02T09:24:36;33.53;;;20.33;;
8319;SDS011;4197;42.130;24.746;2024-03-02T09:27:09;42.40;;;20.47;;
8319;SDS011;4197;42.130;24.746;2024-03-02T09:29:38;40.20;;;20.70;;
8319;SDS011;4197;42.130;24.746;2024-03-02T09:32:06;31.67;;;18.90;;
8319;SDS011;4197;42.130;24.746;2024-03-02T09:34:36;35.27;;;20.73;;
8319;SDS011;4197;42.130;24.746;2024-03-02T09:37:05;42.43;;;21.13;;
8319;SDS011;4197;42.130;24.746;2024-03-02T09:39:50;39.23;;;21.13;;
8319;SDS011;4197;42.130;24.746;2024-03-02T09:42:21;36.90;;;20.70;;
8319;SDS011;4197;42.130;24.746;2024-03-02T09:44:50;38.40;;;21.60;;
8319;SDS011;4197;42.130;24.746;2024-03-02T09:47:19;33.57;;;21.37;;
8319;SDS011;4197;42.130;24.746;2024-03-02T09:49:47;36.90;;;21.33;;
8319;SDS011;4197;42.130;24.746;2024-03-02T09:52:16;43.87;;;22.43;;
8319;SDS011;4197;42.130;24.746;2024-03-02T09:54:47;37.73;;;23.70;;
8319;SDS011;4197;42.130;24.746;2024-03-02T09:57:15;46.30;;;28.30;;
8319;SDS011;4197;42.130;24.746;2024-03-02T09:59:45;42.63;;;26.13;;
8319;SDS011;4197;42.130;24.746;2024-03-02T10:02:14;44.17;;;23.63;;
8319;SDS011;4197;42.130;24.746;2024-03-02T10:04:42;39.33;;;21.87;;
8319;SDS011;4197;42.130;24.746;2024-03-02T10:07:12;39.27;;;20.87;;
8319;SDS011;4197;42.130;24.746;2024-03-02T10:09:41;41.10;;;21.47;;
8319;SDS011;4197;42.130;24.746;2024-03-02T10:12:12;33.40;;;19.83;;
8319;SDS011;4197;42.130;24.746;2024-03-02T10:14:41;38.33;;;21.43;;
8319;SDS011;4197;42.130;24.746;2024-03-02T10:17:12;37.57;;;21.57;;
8319;SDS011;4197;42.130;24.746;2024-03-02T10:19:42;36.73;;;20.47;;
8319;SDS011;4197;42.130;24.746;2024-03-02T10:22:10;36.50;;;21.80;;
8319;SDS011;4197;42.130;24.746;2024-03-02T10:24:39;40.50;;;21.70;;
8319;SDS011;4197;42.130;24.746;2024-03-02T10:27:09;33.37;;;20.33;;
8319;SDS011;4197;42.130;24.746;2024-03-02T10:29:38;37.87;;;22.30;;
8319;SDS011;4197;42.130;24.746;2024-03-02T10:32:12;26.00;;;18.47;;
8319;SDS011;4197;42.130;24.746;2024-03-02T10:34:40;29.63;;;19.67;;
8319;SDS011;4197;42.130;24.746;2024-03-02T10:37:10;35.30;;;21.77;;
8319;SDS011;4197;42.130;24.746;2024-03-02T10:39:39;30.70;;;19.03;;
8319;SDS011;4197;42.130;24.746;2024-03-02T10:42:08;34.70;;;20.80;;
8319;SDS011;4197;42.130;24.746;2024-03-02T10:44:37;33.30;;;21.37;;
8319;SDS011;4197;42.130;24.746;2024-03-02T10:47:06;76.73;;;48.30;;
8319;SDS011;4197;42.130;24.746;2024-03-02T10:49:41;42.00;;;26.20;;
8319;SDS011;4197;42.130;24.746;2024-03-02T10:52:10;47.23;;;30.30;;
8319;SDS011;4197;42.130;24.746;2024-03-02T10:54:38;34.50;;;23.67;;
8319;SDS011;4197;42.130;24.746;2024-03-02T10:57:07;33.53;;;22.60;;
8319;SDS011;4197;42.130;24.746;2024-03-02T10:59:37;33.77;;;22.30;;
8319;SDS011;4197;42.130;24.746;2024-03-02T11:02:18;34.13;;;23.40;;
8319;SDS011;4197;42.130;24.746;2024-03-02T11:04:51;33.33;;;21.13;;
8319;SDS011;4197;42.130;24.746;2024-03-02T11:07:22;41.23;;;25.60;;
8319;SDS011;4197;42.130;24.746;2024-03-02T11:09:54;40.63;;;24.67;;
8319;SDS011;4197;42.130;24.746;2024-03-02T11:12:28;38.83;;;26.10;;
8319;SDS011;4197;42.130;24.746;2024-03-02T11:14:59;36.80;;;24.20;;
8319;SDS011;4197;42.130;24.746;2024-03-02T11:17:28;36.17;;;23.33;;
8319;SDS011;4197;42.130;24.746;2024-03-02T11:19:59;37.83;;;24.67;;
8319;SDS011;4197;42.130;24.746;2024-03-02T11:22:28;41.40;;;25.55;;
8319;SDS011;4197;42.130;24.746;2024-03-02T11:24:56;38.33;;;26.07;;
8319;SDS011;4197;42.130;24.746;2024-03-02T11:33:25;33.73;;;22.50;;
8319;SDS011;4197;42.130;24.746;2024-03-02T11:36:00;34.33;;;24.80;;
8319;SDS011;4197;42.130;24.746;2024-03-02T11:38:31;39.57;;;25.37;;
8319;SDS011;4197;42.130;24.746;2024-03-02T11:41:01;30.13;;;22.10;;
8319;SDS011;4197;42.130;24.746;2024-03-02T11:43:30;30.83;;;22.00;;
8319;SDS011;4197;42.130;24.746;2024-03-02T11:46:00;33.43;;;23.13;;
8319;SDS011;4197;42.130;24.746;2024-03-02T11:48:35;42.47;;;28.23;;
8319;SDS011;4197;42.130;24.746;2024-03-02T11:51:06;28.87;;;19.90;;
8319;SDS011;4197;42.130;24.746;2024-03-02T11:53:35;28.17;;;20.87;;
8319;SDS011;4197;42.130;24.746;2024-03-02T11:56:06;30.23;;;21.60;;
8319;SDS011;4197;42.130;24.746;2024-03-02T11:58:38;29.43;;;20.10;;
8319;SDS011;4197;42.130;24.746;2024-03-02T12:01:09;31.37;;;23.43;;
8319;SDS011;4197;42.130;24.746;2024-03-02T12:03:38;28.93;;;20.83;;
8319;SDS011;4197;42.130;24.746;2024-03-02T12:06:08;23.80;;;17.30;;
8319;SDS011;4197;42.130;24.746;2024-03-02T12:08:37;24.33;;;17.13;;
8319;SDS011;4197;42.130;24.746;2024-03-02T12:11:07;20.57;;;15.33;;
8319;SDS011;4197;42.130;24.746;2024-03-02T12:13:35;27.33;;;15.80;;
8319;SDS011;4197;42.130;24.746;2024-03-02T12:16:04;23.47;;;16.53;;
8319;SDS011;4197;42.130;24.746;2024-03-02T12:18:34;23.57;;;16.57;;
8319;SDS011;4197;42.130;24.746;2024-03-02T12:21:02;20.47;;;15.20;;
8319;SDS011;4197;42.130;24.746;2024-03-02T12:23:34;22.07;;;15.83;;
8319;SDS011;4197;42.130;24.746;2024-03-02T12:26:03;32.17;;;17.93;;
8319;SDS011;4197;42.130;24.746;2024-03-02T12:28:32;20.80;;;16.23;;
8319;SDS011;4197;42.130;24.746;2024-03-02T12:31:01;26.67;;;18.13;;
8319;SDS011;4197;42.130;24.746;2024-03-02T12:33:30;25.13;;;17.73;;
8319;SDS011;4197;42.130;24.746;2024-03-02T12:35:59;25.83;;;19.20;;
8319;SDS011;4197;42.130;24.746;2024-03-02T12:38:27;24.23;;;17.80;;
8319;SDS011;4197;42.130;24.746;2024-03-02T12:40:57;22.23;;;18.07;;
8319;SDS011;4197;42.130;24.746;2024-03-02T12:43:29;21.50;;;15.13;;
8319;SDS011;4197;42.130;24.746;2024-03-02T12:45:58;25.50;;;17.80;;
8319;SDS011;4197;42.130;24.746;2024-03-02T12:48:27;22.70;;;16.77;;
8319;SDS011;4197;42.130;24.746;2024-03-02T12:50:56;22.40;;;17.23;;
8319;SDS011;4197;42.130;24.746;2024-03-02T12:53:24;23.30;;;18.23;;
8319;SDS011;4197;42.130;24.746;2024-03-02T12:55:52;27.57;;;19.57;;
8319;SDS011;4197;42.130;24.746;2024-03-02T12:58:23;29.03;;;20.73;;
8319;SDS011;4197;42.130;24.746;2024-03-02T13:01:05;27.60;;;20.23;;
8319;SDS011;4197;42.130;24.746;2024-03-02T13:03:35;23.63;;;17.40;;
8319;SDS011;4197;42.130;24.746;2024-03-02T13:06:04;25.97;;;17.43;;
8319;SDS011;4197;42.130;24.746;2024-03-02T13:08:33;23.33;;;16.70;;
8319;SDS011;4197;42.130;24.746;2024-03-02T13:11:02;22.53;;;16.17;;
8319;SDS011;4197;42.130;24.746;2024-03-02T13:13:35;21.70;;;16.57;;
8319;SDS011;4197;42.130;24.746;2024-03-02T13:16:05;23.50;;;17.67;;
8319;SDS011;4197;42.130;24.746;2024-03-02T13:18:38;24.50;;;17.00;;
8319;SDS011;4197;42.130;24.746;2024-03-02T13:21:06;26.20;;;18.70;;
8319;SDS011;4197;42.130;24.746;2024-03-02T13:23:35;23.10;;;17.83;;
8319;SDS011;4197;42.130;24.746;2024-03-02T13:26:03;25.53;;;18.20;;
8319;SDS011;4197;42.130;24.746;2024-03-02T13:28:35;24.83;;;19.13;;
8319;SDS011;4197;42.130;24.746;2024-03-02T13:31:04;24.17;;;18.93;;
8319;SDS011;4197;42.130;24.746;2024-03-02T13:33:33;22.53;;;18.27;;
8319;SDS011;4197;42.130;24.746;2024-03-02T13:36:02;25.77;;;18.73;;
8319;SDS011;4197;42.130;24.746;2024-03-02T13:38:30;26.97;;;19.27;;
8319;SDS011;4197;42.130;24.746;2024-03-02T13:40:59;23.23;;;18.20;;
8319;SDS011;4197;42.130;24.746;2024-03-02T13:43:27;28.63;;;19.80;;
8319;SDS011;4197;42.130;24.746;2024-03-02T13:45:59;25.30;;;19.50;;
8319;SDS011;4197;42.130;24.746;2024-03-02T13:48:28;25.13;;;19.80;;
8319;SDS011;4197;42.130;24.746;2024-03-02T13:50:57;28.10;;;20.47;;
8319;SDS011;4197;42.130;24.746;2024-03-02T13:53:26;27.60;;;20.03;;
8319;SDS011;4197;42.130;24.746;2024-03-02T13:55:54;25.80;;;19.47;;
8319;SDS011;4197;42.130;24.746;2024-03-02T13:58:23;24.13;;;18.23;;
8319;SDS011;4197;42.130;24.746;2024-03-02T14:00:51;26.17;;;19.33;;
8319;SDS011;4197;42.130;24.746;2024-03-02T14:03:21;22.57;;;18.77;;
8319;SDS011;4197;42.130;24.746;2024-03-02T14:05:50;25.93;;;18.17;;
8319;SDS011;4197;42.130;24.746;2024-03-02T14:08:19;21.37;;;17.37;;
8319;SDS011;4197;42.130;24.746;2024-03-02T14:10:48;24.10;;;17.87;;
8319;SDS011;4197;42.130;24.746;2024-03-02T14:13:16;23.70;;;17.17;;
8319;SDS011;4197;42.130;24.746;2024-03-02T14:15:45;25.93;;;18.07;;
8319;SDS011;4197;42.130;24.746;2024-03-02T14:18:13;24.17;;;16.70;;
8319;SDS011;4197;42.130;24.746;2024-03-02T14:20:43;25.53;;;17.07;;
8319;SDS011;4197;42.130;24.746;2024-03-02T14:23:13;21.43;;;16.37;;
8319;SDS011;4197;42.130;24.746;2024-03-02T14:25:41;21.53;;;16.90;;
8319;SDS011;4197;42.130;24.746;2024-03-02T14:28:09;25.33;;;18.50;;
8319;SDS011;4197;42.130;24.746;2024-03-02T14:30:58;27.07;;;18.13;;
8319;SDS011;4197;42.130;24.746;2024-03-02T14:33:27;23.57;;;18.00;;
8319;SDS011;4197;42.130;24.746;2024-03-02T14:35:57;21.43;;;16.70;;
8319;SDS011;4197;42.130;24.746;2024-03-02T14:38:26;25.40;;;18.23;;
8319;SDS011;4197;42.130;24.746;2024-03-02T14:40:55;60.57;;;42.07;;
8319;SDS011;4197;42.130;24.746;2024-03-02T14:43:24;25.37;;;17.30;;
8319;SDS011;4197;42.130;24.746;2024-03-02T14:45:52;25.40;;;18.30;;
8319;SDS011;4197;42.130;24.746;2024-03-02T14:48:21;22.90;;;16.47;;
8319;SDS011;4197;42.130;24.746;2024-03-02T14:50:49;25.10;;;18.63;;
8319;SDS011;4197;42.130;24.746;2024-03-02T14:53:20;23.13;;;17.40;;